Airfield :
LOGIN :

Register | Disclaimer

   EN    FR    IT 

 










Legend :    VFR   Marginal VFR   IFR   Intensive IFR   Very Intensive IFR
Visi :
Ceiling :
>= 8 km
>= 3000ft
5 to 8 km
1000 to 3000 ft
1500m to 5 km
500 to 1000 ft
800 to 1500m
200 to 500 ft
< 800m
< 200 ft
Symbols :   Thunderstorms  Fog  Heavy snow  Heavy precipitations  Wind > 20 kt
SIGMETs :     Misc.  Thunderstorms  Icing  Turbulence  Mountain Waves  Volcanic Ashes







- Airport Elevation : 46 ft
- IATA code : SNN


EINN - Shannon

CURRENT METAR :
  • 270730Z 27014KT 9999 FEW012 FEW020CB SCT046 BKN070 12/09 Q1013 NOSIG

EXPIRED METARs :
  • 270700Z 26013KT 240V300 9999 -SHRA FEW012 SCT020CB BKN060 12/09 Q1013 NOSIG
  • 270630Z 26009KT 9999 FEW020CB BKN060 12/09 Q1013 NOSIG
  • 270600Z 27011KT 9999 FEW020CB BKN060 12/09 Q1013 NOSIG
  • 270530Z 26010KT 9999 FEW015 FEW020CB 11/09 Q1013 NOSIG
  • 270500Z 25009KT 9999 FEW014 FEW019CB SCT060 11/09 Q1013 NOSIG
  • 270430Z 26011KT 9999 FEW014 FEW019CB 11/09 Q1013 NOSIG

TAF TAF EINN
Valid from the 27 at 06:00 until the 28 at 06:00 UTC


270500Z 2706/2806 26012KT 9999 FEW015 SCT045
TEMPO 2706/2806 -SHRA SCT020CB
PROB40
TEMPO 2706/2719 28015G25KT 4000 SHRA
BECMG 2718/2720 30012KT
BECMG 2803/2805 34008KT
No reported NOTAMs for that airfield.



MET'MAP, your aeronautical weather chart ! - Copyright ORBIFLY December 2007 - Disclaimer

ORBIFLY MET'MAP TEAM :

Programming & Development : Alexandra Zaïnal
Concept & Development : Baudouin d'Aumeries
Co-Development & Prog : Marc-Olivier Méhu
Technical & hardware support : Manuel Goepfert

Contact : metmap@orbifly.com




SOURCES & CREDITS :

   NOAA